createdAt,value
2017-11-18T00:01:34.773Z,52.80
2017-11-18T00:04:02.029Z,52.70
2017-11-18T00:06:29.176Z,52.80
2017-11-18T00:08:56.333Z,52.60
2017-11-18T00:11:23.500Z,52.80
2017-11-18T00:13:50.693Z,52.60
2017-11-18T00:16:18.617Z,53.10
2017-11-18T00:18:45.801Z,52.50
2017-11-18T00:21:12.953Z,52.40
2017-11-18T00:23:40.106Z,52.50
2017-11-18T00:26:08.765Z,52.50
2017-11-18T00:28:35.998Z,52.50
2017-11-18T00:31:03.161Z,53.20
2017-11-18T00:33:30.360Z,52.40
2017-11-18T00:35:58.369Z,52.40
2017-11-18T00:38:25.621Z,52.40
2017-11-18T00:40:52.877Z,52.50
2017-11-18T00:43:20.028Z,52.40
2017-11-18T00:45:47.804Z,52.40
2017-11-18T00:48:14.953Z,52.40
2017-11-18T00:50:42.206Z,52.60
2017-11-18T00:53:09.450Z,52.40
2017-11-18T00:55:36.629Z,52.50
2017-11-18T00:58:03.852Z,52.30
2017-11-18T01:00:31.009Z,52.30
2017-11-18T01:02:58.482Z,52.40
2017-11-18T01:05:25.732Z,52.30
2017-11-18T01:07:52.921Z,52.60
2017-11-18T01:10:20.120Z,52.30
2017-11-18T01:12:47.270Z,52.30
2017-11-18T01:15:14.528Z,52.20
2017-11-18T01:17:41.685Z,52.30
2017-11-18T01:20:08.864Z,52.30
2017-11-18T01:22:36.061Z,52.50
2017-11-18T01:25:04.050Z,52.50
2017-11-18T01:27:32.024Z,52.50
2017-11-18T01:29:59.173Z,52.40
2017-11-18T01:32:26.349Z,52.40
2017-11-18T01:34:53.581Z,52.30
2017-11-18T01:37:20.772Z,52.30
2017-11-18T01:39:47.988Z,52.20
2017-11-18T01:42:15.142Z,52.30
2017-11-18T01:44:42.284Z,52.30
2017-11-18T01:47:09.534Z,52.50
2017-11-18T01:49:36.696Z,52.40
2017-11-18T01:52:03.941Z,52.30
2017-11-18T01:54:31.093Z,52.20
2017-11-18T01:56:58.245Z,52.40
2017-11-18T01:59:25.396Z,52.10
2017-11-18T02:01:52.589Z,51.70
2017-11-18T02:04:19.779Z,51.70
2017-11-18T02:06:47.692Z,52.40
2017-11-18T02:09:14.917Z,52.40
2017-11-18T02:11:42.072Z,52.90
2017-11-18T02:14:09.220Z,53.00
2017-11-18T02:16:36.372Z,53.00
2017-11-18T02:19:07.662Z,53.00
2017-11-18T02:21:34.868Z,53.10
2017-11-18T02:24:02.016Z,53.00
2017-11-18T02:26:29.272Z,52.90
2017-11-18T02:28:56.452Z,52.90
2017-11-18T02:31:23.600Z,52.90
2017-11-18T02:33:50.765Z,53.00
2017-11-18T02:36:17.921Z,52.90
2017-11-18T02:38:45.104Z,52.90
2017-11-18T02:41:13.025Z,52.80
2017-11-18T02:43:40.171Z,52.80
2017-11-18T02:46:07.359Z,52.90
2017-11-18T02:48:34.562Z,52.70
2017-11-18T02:51:01.805Z,52.70
2017-11-18T02:53:29.067Z,52.70
2017-11-18T02:55:56.212Z,52.60
2017-11-18T02:58:23.366Z,52.40
2017-11-18T03:00:50.516Z,52.30
2017-11-18T03:03:17.737Z,52.80
2017-11-18T03:05:45.656Z,52.50
2017-11-18T03:08:12.809Z,52.40
2017-11-18T03:10:39.961Z,52.50
2017-11-18T03:13:07.153Z,52.30
2017-11-18T03:15:35.164Z,52.20
2017-11-18T03:18:02.428Z,52.10
2017-11-18T03:20:29.678Z,52.50
2017-11-18T03:22:56.835Z,52.40
2017-11-18T03:25:23.985Z,52.40
2017-11-18T03:27:51.139Z,52.30
2017-11-18T03:30:18.296Z,52.40
2017-11-18T03:32:45.456Z,52.30
2017-11-18T03:35:12.608Z,52.20
2017-11-18T03:37:39.757Z,53.00
2017-11-18T03:40:06.994Z,52.50
2017-11-18T03:42:34.231Z,52.50
2017-11-18T03:45:01.386Z,52.40
2017-11-18T03:47:28.529Z,52.40
2017-11-18T03:49:55.715Z,52.20
2017-11-18T03:52:22.864Z,52.30
2017-11-18T03:54:50.418Z,52.10
2017-11-18T03:57:17.568Z,52.20
2017-11-18T03:59:44.720Z,52.40
2017-11-18T04:02:11.956Z,52.10
2017-11-18T04:04:39.114Z,52.20
2017-11-18T04:07:06.255Z,52.20
2017-11-18T04:09:33.405Z,52.20
2017-11-18T04:12:00.555Z,52.10
2017-11-18T04:14:27.812Z,52.30
2017-11-18T04:16:55.067Z,52.30
2017-11-18T04:19:22.252Z,52.00
2017-11-18T04:21:49.408Z,52.00
2017-11-18T04:24:16.644Z,52.20
2017-11-18T04:26:43.796Z,52.10
2017-11-18T04:29:11.022Z,51.80
2017-11-18T04:31:38.217Z,52.10
2017-11-18T04:34:05.369Z,51.70
2017-11-18T04:36:32.593Z,52.50
2017-11-18T04:38:59.789Z,52.70
2017-11-18T04:41:27.099Z,52.80
2017-11-18T04:43:54.341Z,53.00
2017-11-18T04:46:21.495Z,52.80
2017-11-18T04:48:48.642Z,53.00
2017-11-18T04:51:15.888Z,52.70
2017-11-18T04:53:43.036Z,52.50
2017-11-18T04:56:10.183Z,52.80
2017-11-18T04:58:37.341Z,52.70
2017-11-18T05:01:04.501Z,52.90
2017-11-18T05:03:31.750Z,52.80
2017-11-18T05:05:58.905Z,52.50
2017-11-18T05:08:26.152Z,52.80
2017-11-18T05:10:53.408Z,52.60
2017-11-18T05:13:20.556Z,52.30
2017-11-18T05:15:47.708Z,52.30
2017-11-18T05:18:14.961Z,52.30
2017-11-18T05:20:42.137Z,53.00
2017-11-18T05:23:09.288Z,52.40
2017-11-18T05:25:36.519Z,52.30
2017-11-18T05:28:03.773Z,52.50
2017-11-18T05:30:30.956Z,52.30
2017-11-18T05:32:58.108Z,52.20
2017-11-18T05:35:25.259Z,52.10
2017-11-18T05:37:52.409Z,52.40
2017-11-18T05:40:19.556Z,52.20
2017-11-18T05:42:46.703Z,52.40
2017-11-18T05:45:13.933Z,52.60
2017-11-18T05:47:41.085Z,52.40
2017-11-18T05:50:08.338Z,52.40
2017-11-18T05:52:35.489Z,52.30
2017-11-18T05:55:02.636Z,52.40
2017-11-18T05:57:29.888Z,52.10
2017-11-18T05:59:57.040Z,52.40
2017-11-18T06:02:24.189Z,52.20
2017-11-18T06:04:51.368Z,51.90
2017-11-18T06:07:18.592Z,51.90
2017-11-18T06:09:45.759Z,51.90
2017-11-18T06:12:13.000Z,51.80
2017-11-18T06:14:40.152Z,52.00
2017-11-18T06:17:07.301Z,52.10
2017-11-18T06:19:34.456Z,52.70
2017-11-18T06:22:01.610Z,52.90
2017-11-18T06:24:28.797Z,52.10
2017-11-18T06:26:55.943Z,52.30
2017-11-18T06:29:23.100Z,52.50
2017-11-18T06:31:50.249Z,52.50
2017-11-18T06:34:17.401Z,52.10
2017-11-18T06:36:44.552Z,52.20
2017-11-18T06:39:11.705Z,52.40
2017-11-18T06:41:38.853Z,52.30
2017-11-18T06:44:05.999Z,52.40
2017-11-18T06:46:33.148Z,52.90
2017-11-18T06:49:00.300Z,52.50
2017-11-18T06:51:27.454Z,52.20
2017-11-18T06:53:54.602Z,52.10
2017-11-18T06:56:21.758Z,52.20
2017-11-18T06:58:48.909Z,52.20
2017-11-18T07:01:16.061Z,52.50
2017-11-18T07:03:43.213Z,52.60
2017-11-18T07:06:10.404Z,52.30
2017-11-18T07:08:38.320Z,52.40
2017-11-18T07:11:05.468Z,52.40
2017-11-18T07:13:32.620Z,52.40
2017-11-18T07:15:59.879Z,52.50
2017-11-18T07:18:27.802Z,52.30
2017-11-18T07:20:55.000Z,52.40
2017-11-18T07:23:22.150Z,52.40
2017-11-18T07:25:49.300Z,52.30
2017-11-18T07:28:17.222Z,52.40
2017-11-18T07:30:45.179Z,52.10
2017-11-18T07:33:13.100Z,52.00
2017-11-18T07:35:40.279Z,52.00
2017-11-18T07:38:07.430Z,52.40
2017-11-18T07:40:34.664Z,51.90
2017-11-18T07:43:01.812Z,51.90
2017-11-18T07:45:28.960Z,52.10
2017-11-18T07:47:56.113Z,52.70
2017-11-18T07:50:23.270Z,52.40
2017-11-18T07:52:50.424Z,52.10
2017-11-18T07:55:17.617Z,52.20
2017-11-18T07:57:45.537Z,52.40
2017-11-18T08:00:12.708Z,52.40
2017-11-18T08:02:39.859Z,52.50
2017-11-18T08:05:07.014Z,52.80
2017-11-18T08:07:34.173Z,52.40
2017-11-18T08:10:02.117Z,52.10
2017-11-18T08:12:29.269Z,52.10
2017-11-18T08:14:56.423Z,52.20
2017-11-18T08:17:23.574Z,52.60
2017-11-18T08:19:50.772Z,52.70
2017-11-18T08:22:17.928Z,53.00
2017-11-18T08:24:45.129Z,52.60
2017-11-18T08:27:12.276Z,52.40
2017-11-18T08:29:39.429Z,52.60
2017-11-18T08:32:06.583Z,52.80
2017-11-18T08:34:33.734Z,52.80
2017-11-18T08:37:00.882Z,52.90
2017-11-18T08:39:28.036Z,52.80
2017-11-18T08:41:55.185Z,52.80
2017-11-18T08:44:22.341Z,52.90
2017-11-18T08:46:49.490Z,53.10
2017-11-18T08:49:16.641Z,53.00
2017-11-18T08:51:43.794Z,53.20
2017-11-18T08:54:10.943Z,53.10
2017-11-18T08:56:38.865Z,52.90
2017-11-18T08:59:06.191Z,52.90
2017-11-18T09:01:34.117Z,53.00
2017-11-18T09:04:01.273Z,53.00
2017-11-18T09:06:28.425Z,52.40
2017-11-18T09:08:56.349Z,52.30
2017-11-18T09:11:23.531Z,52.30
2017-11-18T09:13:50.681Z,52.60
2017-11-18T09:16:17.829Z,52.40
2017-11-18T09:18:45.013Z,52.10
2017-11-18T09:21:12.173Z,52.30
2017-11-18T09:23:39.329Z,52.60
2017-11-18T09:26:06.488Z,52.30
2017-11-18T09:28:34.456Z,51.70
2017-11-18T09:31:02.384Z,52.40
2017-11-18T09:33:29.580Z,52.30
2017-11-18T09:35:57.502Z,53.40
2017-11-18T09:38:24.781Z,52.70
2017-11-18T09:40:51.939Z,52.50
2017-11-18T09:43:19.186Z,52.20
2017-11-18T09:45:47.103Z,52.60
2017-11-18T09:48:14.297Z,52.60
2017-11-18T09:50:41.484Z,52.50
2017-11-18T09:53:09.409Z,53.50
2017-11-18T09:55:36.600Z,52.70
2017-11-18T09:58:04.677Z,52.60
2017-11-18T10:00:32.600Z,52.70
2017-11-18T10:02:59.755Z,52.70
2017-11-18T10:05:26.935Z,52.80
2017-11-18T10:07:54.085Z,52.60
2017-11-18T10:10:21.232Z,52.90
2017-11-18T10:12:48.416Z,52.90
2017-11-18T10:15:16.340Z,52.70
2017-11-18T10:17:43.533Z,52.70
2017-11-18T10:20:11.456Z,52.70
2017-11-18T10:22:38.610Z,52.60
2017-11-18T10:25:05.777Z,52.90
2017-11-18T10:27:33.024Z,53.00
2017-11-18T10:30:00.166Z,52.70
2017-11-18T10:32:27.317Z,52.70
2017-11-18T10:34:54.512Z,52.80
2017-11-18T10:37:22.445Z,52.90
2017-11-18T10:39:49.629Z,52.90
2017-11-18T10:42:17.550Z,52.90
2017-11-18T10:44:44.769Z,52.80
2017-11-18T10:47:12.788Z,53.10
2017-11-18T10:49:39.941Z,53.10
2017-11-18T10:52:07.110Z,52.70
2017-11-18T10:54:34.317Z,53.00
2017-11-18T10:57:01.474Z,52.80
2017-11-18T10:59:28.647Z,53.60
2017-11-18T11:01:55.800Z,53.30
2017-11-18T11:04:22.959Z,53.20
2017-11-18T11:06:50.110Z,53.20
2017-11-18T11:09:17.312Z,53.20
2017-11-18T11:11:44.462Z,52.60
2017-11-18T11:14:11.612Z,52.20
2017-11-18T11:16:38.765Z,52.40
2017-11-18T11:19:05.915Z,52.30
2017-11-18T11:21:33.138Z,52.60
2017-11-18T11:24:01.082Z,52.10
2017-11-18T11:26:28.265Z,52.10
2017-11-18T11:28:56.182Z,52.20
2017-11-18T11:31:23.382Z,52.10
2017-11-18T11:33:51.321Z,52.50
2017-11-18T11:36:18.503Z,52.20
2017-11-18T11:38:47.316Z,53.10
2017-11-18T11:41:14.843Z,52.30
2017-11-18T11:43:42.145Z,52.00
2017-11-18T11:46:09.292Z,52.90
2017-11-18T11:48:36.752Z,52.30
2017-11-18T11:51:03.938Z,52.70
2017-11-18T11:53:31.117Z,52.60
2017-11-18T11:55:58.313Z,52.10
2017-11-18T11:58:25.460Z,52.10
2017-11-18T12:00:53.196Z,52.10
2017-11-18T12:03:20.392Z,52.10
2017-11-18T12:05:47.576Z,52.70
2017-11-18T12:08:14.773Z,52.50
2017-11-18T12:10:41.944Z,52.30
2017-11-18T12:13:09.207Z,52.30
2017-11-18T12:15:36.355Z,52.30
2017-11-18T12:18:03.588Z,53.40
2017-11-18T12:20:30.849Z,52.50
2017-11-18T12:22:58.000Z,52.40
2017-11-18T12:25:25.184Z,53.30
2017-11-18T12:27:52.340Z,52.30
2017-11-18T12:30:19.532Z,52.40
2017-11-18T12:32:47.561Z,52.00
2017-11-18T12:35:14.713Z,52.00
2017-11-18T12:37:42.024Z,52.10
2017-11-18T12:40:09.172Z,52.10
2017-11-18T12:42:36.436Z,52.20
2017-11-18T12:45:03.589Z,52.00
2017-11-18T12:47:31.190Z,52.10
2017-11-18T12:49:58.380Z,52.10
2017-11-18T12:52:25.560Z,51.80
2017-11-18T12:54:52.729Z,51.60
2017-11-18T12:57:19.900Z,51.80
2017-11-18T13:13:38.233Z,51.80
2017-11-18T13:16:05.380Z,51.80
2017-11-18T13:18:32.680Z,52.20
2017-11-18T13:21:00.604Z,51.60
2017-11-18T13:23:27.773Z,51.60
2017-11-18T13:25:54.934Z,51.80
2017-11-18T13:28:22.087Z,51.70
2017-11-18T13:30:49.269Z,52.20
2017-11-18T13:33:17.184Z,51.90
2017-11-18T13:35:44.409Z,51.90
2017-11-18T13:38:11.566Z,52.00
2017-11-18T13:40:38.733Z,52.00
2017-11-18T13:43:05.898Z,52.20
2017-11-18T13:45:33.054Z,52.00
2017-11-18T13:48:00.336Z,52.10
2017-11-18T13:50:28.350Z,52.00
2017-11-18T13:52:55.517Z,51.90
2017-11-18T13:55:22.673Z,51.80
2017-11-18T13:57:49.821Z,52.30
2017-11-18T14:00:17.009Z,52.20
2017-11-18T14:02:45.064Z,52.00
2017-11-18T14:05:12.256Z,51.90
2017-11-18T14:07:39.402Z,51.70
2017-11-18T14:10:06.583Z,52.20
2017-11-18T14:12:34.549Z,51.80
2017-11-18T14:15:01.698Z,51.80
2017-11-18T14:17:28.849Z,51.80
2017-11-18T14:19:56.053Z,52.10
2017-11-18T14:22:23.984Z,52.20
2017-11-18T14:24:51.136Z,52.30
2017-11-18T14:27:18.333Z,52.10
2017-11-18T14:29:46.280Z,52.90
2017-11-18T14:32:13.433Z,52.20
2017-11-18T14:34:40.692Z,52.40
2017-11-18T14:37:07.849Z,51.70
2017-11-18T14:39:35.006Z,51.70
2017-11-18T14:42:02.153Z,51.70
2017-11-18T14:44:30.081Z,52.00
2017-11-18T14:46:57.248Z,51.90
2017-11-18T14:49:24.408Z,52.90
2017-11-18T14:51:51.598Z,52.20
2017-11-18T14:54:19.508Z,52.00
2017-11-18T14:56:46.701Z,52.00
2017-11-18T14:59:13.848Z,52.50
2017-11-18T15:01:41.123Z,52.10
2017-11-18T15:04:09.037Z,52.10
2017-11-18T15:06:36.209Z,52.10
2017-11-18T15:09:03.373Z,52.10
2017-11-18T15:11:30.516Z,52.20
2017-11-18T15:13:57.665Z,52.20
2017-11-18T15:16:30.604Z,52.10
2017-11-18T15:19:03.592Z,52.00
2017-11-18T15:21:36.484Z,52.40
2017-11-18T15:24:19.005Z,52.00
2017-11-18T15:26:51.836Z,52.00
2017-11-18T15:29:19.811Z,52.00
2017-11-18T15:31:53.544Z,52.30
2017-11-18T15:34:21.493Z,52.40
2017-11-18T15:36:57.889Z,51.90
2017-11-18T15:39:25.082Z,51.90
2017-11-18T15:41:52.237Z,52.10
2017-11-18T15:44:21.287Z,52.20
2017-11-18T15:47:03.316Z,52.20
2017-11-18T15:49:36.210Z,52.40
2017-11-18T15:52:18.258Z,52.80
2017-11-18T15:54:47.000Z,52.20
2017-11-18T15:57:14.149Z,52.30
2017-11-18T15:59:41.317Z,52.50
2017-11-18T16:02:20.314Z,52.70
2017-11-18T16:04:47.469Z,52.40
2017-11-18T16:07:29.389Z,52.20
2017-11-18T16:09:56.628Z,52.50
2017-11-18T16:12:23.816Z,52.70
2017-11-18T16:14:51.737Z,52.80
2017-11-18T16:17:18.911Z,52.90
2017-11-18T16:19:46.065Z,52.70
2017-11-18T16:22:13.213Z,52.50
2017-11-18T16:24:40.421Z,52.70
2017-11-18T16:27:07.572Z,52.60
2017-11-18T16:29:34.721Z,52.90
2017-11-18T16:32:01.877Z,52.90
2017-11-18T16:34:29.049Z,52.70
2017-11-18T16:36:56.252Z,52.90
2017-11-18T16:39:24.252Z,52.50
2017-11-18T16:41:51.421Z,52.50
2017-11-18T16:44:18.698Z,53.00
2017-11-18T16:46:45.861Z,53.00
2017-11-18T16:49:13.012Z,53.20
2017-11-18T16:51:40.236Z,52.80
2017-11-18T16:54:07.492Z,52.70
2017-11-18T16:56:34.649Z,52.50
2017-11-18T16:59:01.807Z,52.50
2017-11-18T17:01:28.980Z,52.60
2017-11-18T17:03:58.100Z,52.90
2017-11-18T17:06:25.265Z,52.90
2017-11-18T17:08:52.534Z,52.70
2017-11-18T17:11:19.690Z,52.80
2017-11-18T17:13:47.905Z,52.80
2017-11-18T17:16:15.059Z,52.60
2017-11-18T17:18:42.986Z,53.00
2017-11-18T17:21:10.221Z,52.70
2017-11-18T17:23:37.473Z,52.90
2017-11-18T17:26:04.624Z,52.70
2017-11-18T17:28:31.811Z,52.70
2017-11-18T17:30:58.961Z,53.00
2017-11-18T17:33:26.113Z,53.00
2017-11-18T17:35:53.266Z,53.00
2017-11-18T17:38:20.429Z,52.90
2017-11-18T17:40:47.577Z,52.90
2017-11-18T17:43:14.729Z,53.10
2017-11-18T17:45:41.878Z,53.20
2017-11-18T17:48:09.076Z,52.90
2017-11-18T17:50:36.225Z,53.20
2017-11-18T17:53:03.377Z,52.80
2017-11-18T17:55:30.528Z,52.60
2017-11-18T17:57:57.719Z,52.90
2017-11-18T18:00:24.889Z,53.20
2017-11-18T18:02:52.036Z,53.30
2017-11-18T18:05:19.190Z,53.40
2017-11-18T18:07:46.392Z,53.00
2017-11-18T18:10:13.545Z,52.90
2017-11-18T18:12:40.698Z,53.10
2017-11-18T18:15:07.949Z,52.90
2017-11-18T18:17:35.109Z,53.30
2017-11-18T18:20:02.266Z,53.20
2017-11-18T18:22:29.429Z,53.10
2017-11-18T18:24:56.581Z,53.00
2017-11-18T18:27:23.780Z,53.10
2017-11-18T18:29:51.702Z,53.00
2017-11-18T18:32:18.856Z,53.00
2017-11-18T18:34:46.081Z,53.50
2017-11-18T18:37:13.245Z,52.90
2017-11-18T18:39:40.481Z,52.70
2017-11-18T18:42:07.636Z,53.10
2017-11-18T18:44:37.913Z,53.20
2017-11-18T18:47:05.933Z,53.40
2017-11-18T18:49:33.080Z,53.50
2017-11-18T18:52:00.229Z,53.90
2017-11-18T18:54:27.380Z,55.30
2017-11-18T18:56:54.529Z,54.40
2017-11-18T18:59:21.780Z,53.50
2017-11-18T19:01:49.857Z,53.30
2017-11-18T19:04:17.109Z,54.80
2017-11-18T19:06:44.262Z,53.80
2017-11-18T19:09:11.412Z,53.70
2017-11-18T19:11:38.566Z,53.50
2017-11-18T19:14:05.721Z,53.20
2017-11-18T19:16:32.869Z,53.50
2017-11-18T19:19:00.029Z,53.20
2017-11-18T19:21:27.183Z,52.70
2017-11-18T19:23:54.334Z,53.10
2017-11-18T19:26:21.501Z,53.40
2017-11-18T19:28:48.653Z,53.30
2017-11-18T19:31:15.800Z,53.10
2017-11-18T19:33:42.952Z,53.00
2017-11-18T19:36:10.105Z,52.60
2017-11-18T19:38:37.256Z,52.60
2017-11-18T19:41:04.408Z,52.70
2017-11-18T19:43:31.649Z,52.60
2017-11-18T19:45:58.801Z,52.80
2017-11-18T19:48:25.953Z,52.70
2017-11-18T19:50:53.153Z,52.70
2017-11-18T19:53:21.078Z,52.60
2017-11-18T19:55:48.266Z,52.60
2017-11-18T19:58:16.130Z,52.60
2017-11-18T20:00:44.086Z,52.60
2017-11-18T20:03:11.293Z,52.60
2017-11-18T20:05:38.513Z,52.80
2017-11-18T20:08:06.468Z,52.80
2017-11-18T20:10:33.623Z,52.80
2017-11-18T20:13:02.361Z,52.70
2017-11-18T20:15:29.514Z,52.70
2017-11-18T20:17:56.760Z,52.70
2017-11-18T20:20:24.036Z,53.00
2017-11-18T20:22:51.233Z,52.70
2017-11-18T20:25:19.198Z,52.80
2017-11-18T20:27:46.378Z,52.80
2017-11-18T20:30:13.533Z,53.10
2017-11-18T20:32:40.721Z,52.90
2017-11-18T20:35:07.944Z,53.40
2017-11-18T20:37:35.124Z,53.10
2017-11-18T20:40:02.752Z,53.00
2017-11-18T20:42:29.910Z,52.90
2017-11-18T20:44:57.060Z,53.10
2017-11-18T20:47:24.274Z,53.10
2017-11-18T20:49:51.484Z,53.40
2017-11-18T20:52:18.633Z,53.20
2017-11-18T20:54:45.813Z,53.10
2017-11-18T20:57:12.967Z,53.10
2017-11-18T20:59:40.117Z,53.10
2017-11-18T21:02:07.287Z,53.30
2017-11-18T21:04:35.294Z,52.80
2017-11-18T21:07:02.461Z,52.80
2017-11-18T21:09:29.625Z,52.60
2017-11-18T21:11:56.773Z,53.00
2017-11-18T21:14:24.704Z,52.80
2017-11-18T21:16:51.889Z,52.90
2017-11-18T21:19:19.118Z,52.80
2017-11-18T21:21:46.320Z,52.90
2017-11-18T21:24:14.281Z,52.70
2017-11-18T21:26:44.802Z,52.70
2017-11-18T21:29:11.948Z,52.90
2017-11-18T21:31:39.856Z,53.10
2017-11-18T21:34:07.776Z,53.20
2017-11-18T21:36:34.924Z,53.20
2017-11-18T21:39:02.081Z,52.90
2017-11-18T21:41:29.311Z,53.10
2017-11-18T21:43:56.541Z,53.30
2017-11-18T21:46:24.468Z,53.00
2017-11-18T21:48:51.626Z,53.00
2017-11-18T21:51:18.795Z,53.40
2017-11-18T21:53:45.952Z,53.00
2017-11-18T21:56:13.911Z,53.20
2017-11-18T21:58:41.053Z,53.10
2017-11-18T22:01:08.262Z,53.30
2017-11-18T22:03:35.450Z,53.10
2017-11-18T22:06:02.588Z,53.30
2017-11-18T22:08:29.741Z,53.30
2017-11-18T22:10:56.893Z,53.10
2017-11-18T22:13:24.044Z,53.40
2017-11-18T22:15:51.202Z,53.20
2017-11-18T22:18:18.401Z,53.10
2017-11-18T22:20:46.316Z,53.50
2017-11-18T22:23:13.469Z,53.50
2017-11-18T22:25:40.621Z,53.30
2017-11-18T22:28:07.877Z,53.10
2017-11-18T22:30:35.101Z,53.20
2017-11-18T22:33:02.303Z,53.30
2017-11-18T22:35:29.452Z,53.30
2017-11-18T22:37:56.621Z,53.30
2017-11-18T22:40:24.535Z,53.50
2017-11-18T22:42:51.689Z,53.40
2017-11-18T22:45:18.849Z,53.40
2017-11-18T22:47:46.041Z,53.30
2017-11-18T22:50:13.960Z,53.50
2017-11-18T22:52:41.113Z,53.50
2017-11-18T22:55:09.037Z,53.10
2017-11-18T22:57:36.957Z,53.50
2017-11-18T23:00:04.105Z,54.00
2017-11-18T23:02:31.261Z,53.40
2017-11-18T23:04:58.416Z,53.30
2017-11-18T23:07:25.564Z,53.50
2017-11-18T23:09:52.727Z,53.70
2017-11-18T23:12:19.909Z,53.50
2017-11-18T23:14:47.831Z,53.10
2017-11-18T23:17:15.062Z,53.10
2017-11-18T23:19:42.216Z,52.90
2017-11-18T23:22:09.594Z,52.90
2017-11-18T23:24:36.809Z,53.20
2017-11-18T23:27:03.957Z,53.10
2017-11-18T23:29:31.904Z,53.60
2017-11-18T23:31:59.826Z,54.00
2017-11-18T23:34:27.008Z,53.30
2017-11-18T23:36:54.208Z,53.00
2017-11-18T23:39:21.472Z,53.10
2017-11-18T23:41:48.621Z,53.60
2017-11-18T23:44:15.804Z,53.40
2017-11-18T23:46:42.950Z,53.80
2017-11-18T23:49:10.178Z,53.40
2017-11-18T23:51:37.328Z,53.10
2017-11-18T23:54:04.540Z,53.10
2017-11-18T23:56:31.733Z,53.60
2017-11-18T23:58:58.884Z,53.50
